sensor_id;sensor_type;location;lat;lon;timestamp;pressure;altitude;pressure_sealevel;temperature;humidity
7075;BME280;3578;51.568;6.932;2022-10-16T00:01:28;54260.28;;;-144.14;100.00
7075;BME280;3578;51.568;6.932;2022-10-16T00:03:56;54244.25;;;-144.14;100.00
7075;BME280;3578;51.568;6.932;2022-10-16T00:06:24;54280.34;;;-144.14;100.00
7075;BME280;3578;51.568;6.932;2022-10-16T00:08:52;54252.25;;;-144.14;100.00
7075;BME280;3578;51.568;6.932;2022-10-16T00:11:22;54268.31;;;-144.14;100.00
7075;BME280;3578;51.568;6.932;2022-10-16T00:13:52;54268.31;;;-144.14;100.00
7075;BME280;3578;51.568;6.932;2022-10-16T00:16:21;54246.25;;;-144.14;100.00
7075;BME280;3578;51.568;6.932;2022-10-16T00:18:48;54236.22;;;-144.14;100.00
7075;BME280;3578;51.568;6.932;2022-10-16T00:21:17;54212.19;;;-144.14;100.00
7075;BME280;3578;51.568;6.932;2022-10-16T00:23:44;54214.19;;;-144.14;100.00
7075;BME280;3578;51.568;6.932;2022-10-16T00:26:15;54198.13;;;-144.14;100.00
7075;BME280;3578;51.568;6.932;2022-10-16T00:28:46;54192.13;;;-144.14;100.00
7075;BME280;3578;51.568;6.932;2022-10-16T00:31:13;54164.06;;;-144.14;100.00
7075;BME280;3578;51.568;6.932;2022-10-16T00:33:41;54194.13;;;-144.14;100.00
7075;BME280;3578;51.568;6.932;2022-10-16T00:36:11;54176.09;;;-144.14;100.00
7075;BME280;3578;51.568;6.932;2022-10-16T00:38:39;54220.19;;;-144.14;100.00
7075;BME280;3578;51.568;6.932;2022-10-16T00:41:09;54216.19;;;-144.14;100.00
7075;BME280;3578;51.568;6.932;2022-10-16T00:43:41;54194.13;;;-144.14;100.00
7075;BME280;3578;51.568;6.932;2022-10-16T00:46:17;54164.06;;;-144.14;100.00
7075;BME280;3578;51.568;6.932;2022-10-16T00:48:50;54188.13;;;-144.14;100.00
7075;BME280;3578;51.568;6.932;2022-10-16T00:51:25;54182.09;;;-144.14;100.00
7075;BME280;3578;51.568;6.932;2022-10-16T00:53:52;54212.19;;;-144.14;100.00
7075;BME280;3578;51.568;6.932;2022-10-16T00:56:19;54162.06;;;-144.14;100.00
7075;BME280;3578;51.568;6.932;2022-10-16T00:58:47;54168.06;;;-144.14;100.00
7075;BME280;3578;51.568;6.932;2022-10-16T01:01:15;54176.09;;;-144.14;100.00
7075;BME280;3578;51.568;6.932;2022-10-16T01:03:42;54176.09;;;-144.14;100.00
7075;BME280;3578;51.568;6.932;2022-10-16T01:06:23;54188.13;;;-144.14;100.00
7075;BME280;3578;51.568;6.932;2022-10-16T01:09:13;54162.06;;;-144.14;100.00
7075;BME280;3578;51.568;6.932;2022-10-16T01:11:48;54178.09;;;-144.14;100.00
7075;BME280;3578;51.568;6.932;2022-10-16T01:14:25;54186.13;;;-144.14;100.00
7075;BME280;3578;51.568;6.932;2022-10-16T01:17:01;54168.06;;;-144.14;100.00
7075;BME280;3578;51.568;6.932;2022-10-16T01:19:44;54148.03;;;-144.14;100.00
7075;BME280;3578;51.568;6.932;2022-10-16T01:22:17;54136.00;;;-144.14;100.00
7075;BME280;3578;51.568;6.932;2022-10-16T01:24:49;54146.03;;;-144.14;100.00
7075;BME280;3578;51.568;6.932;2022-10-16T01:27:22;54129.97;;;-144.14;100.00
7075;BME280;3578;51.568;6.932;2022-10-16T01:29:54;54168.06;;;-144.14;100.00
7075;BME280;3578;51.568;6.932;2022-10-16T01:32:31;54152.03;;;-144.14;100.00
7075;BME280;3578;51.568;6.932;2022-10-16T01:35:04;54123.97;;;-144.14;100.00
7075;BME280;3578;51.568;6.932;2022-10-16T01:37:38;54154.03;;;-144.14;100.00
7075;BME280;3578;51.568;6.932;2022-10-16T01:40:10;54146.03;;;-144.14;100.00
7075;BME280;3578;51.568;6.932;2022-10-16T01:42:45;54164.06;;;-144.14;100.00
7075;BME280;3578;51.568;6.932;2022-10-16T01:45:15;54132.00;;;-144.14;100.00
7075;BME280;3578;51.568;6.932;2022-10-16T01:47:44;54136.00;;;-144.14;100.00
7075;BME280;3578;51.568;6.932;2022-10-16T01:50:14;54079.88;;;-144.14;100.00
7075;BME280;3578;51.568;6.932;2022-10-16T01:52:46;54132.00;;;-144.14;100.00
7075;BME280;3578;51.568;6.932;2022-10-16T01:55:19;54111.94;;;-144.14;100.00
7075;BME280;3578;51.568;6.932;2022-10-16T01:57:50;54105.94;;;-144.14;100.00
7075;BME280;3578;51.568;6.932;2022-10-16T02:00:20;54107.94;;;-144.14;100.00
7075;BME280;3578;51.568;6.932;2022-10-16T02:02:51;54103.91;;;-144.14;100.00
7075;BME280;3578;51.568;6.932;2022-10-16T02:05:24;54049.81;;;-144.14;100.00
7075;BME280;3578;51.568;6.932;2022-10-16T02:07:52;54059.81;;;-144.14;100.00
7075;BME280;3578;51.568;6.932;2022-10-16T02:10:20;54117.97;;;-144.14;100.00
7075;BME280;3578;51.568;6.932;2022-10-16T02:12:54;54069.84;;;-144.14;100.00
7075;BME280;3578;51.568;6.932;2022-10-16T02:15:23;54103.91;;;-144.14;100.00
7075;BME280;3578;51.568;6.932;2022-10-16T02:17:50;54125.97;;;-144.14;100.00
7075;BME280;3578;51.568;6.932;2022-10-16T02:20:18;54136.00;;;-144.14;100.00
7075;BME280;3578;51.568;6.932;2022-10-16T02:22:48;54127.97;;;-144.14;100.00
7075;BME280;3578;51.568;6.932;2022-10-16T02:25:24;54160.06;;;-144.14;100.00
7075;BME280;3578;51.568;6.932;2022-10-16T02:27:55;54142.00;;;-144.14;100.00
7075;BME280;3578;51.568;6.932;2022-10-16T02:30:28;54136.00;;;-144.14;100.00
7075;BME280;3578;51.568;6.932;2022-10-16T02:32:59;54125.97;;;-144.14;100.00
7075;BME280;3578;51.568;6.932;2022-10-16T02:35:28;54152.03;;;-144.14;100.00
7075;BME280;3578;51.568;6.932;2022-10-16T02:37:56;54156.03;;;-144.14;100.00
7075;BME280;3578;51.568;6.932;2022-10-16T02:40:24;54095.91;;;-144.14;100.00
7075;BME280;3578;51.568;6.932;2022-10-16T02:42:54;54107.94;;;-144.14;100.00
7075;BME280;3578;51.568;6.932;2022-10-16T02:45:24;54146.03;;;-144.14;100.00
7075;BME280;3578;51.568;6.932;2022-10-16T02:47:51;54089.88;;;-144.14;100.00
7075;BME280;3578;51.568;6.932;2022-10-16T02:50:18;54115.94;;;-144.14;100.00
7075;BME280;3578;51.568;6.932;2022-10-16T02:52:45;54142.00;;;-144.14;100.00
7075;BME280;3578;51.568;6.932;2022-10-16T02:55:12;54140.00;;;-144.14;100.00
7075;BME280;3578;51.568;6.932;2022-10-16T02:57:39;54146.03;;;-144.14;100.00
7075;BME280;3578;51.568;6.932;2022-10-16T03:00:11;54101.91;;;-144.14;100.00
7075;BME280;3578;51.568;6.932;2022-10-16T03:02:39;54150.03;;;-144.14;100.00
7075;BME280;3578;51.568;6.932;2022-10-16T03:05:07;54144.00;;;-144.14;100.00
7075;BME280;3578;51.568;6.932;2022-10-16T03:07:35;54162.06;;;-144.14;100.00
7075;BME280;3578;51.568;6.932;2022-10-16T03:10:02;54148.03;;;-144.14;100.00
7075;BME280;3578;51.568;6.932;2022-10-16T03:12:29;54158.03;;;-144.14;100.00
7075;BME280;3578;51.568;6.932;2022-10-16T03:14:57;54144.00;;;-144.14;100.00
7075;BME280;3578;51.568;6.932;2022-10-16T03:17:25;54103.91;;;-144.14;100.00
7075;BME280;3578;51.568;6.932;2022-10-16T03:19:52;54142.00;;;-144.14;100.00
7075;BME280;3578;51.568;6.932;2022-10-16T03:22:19;54115.94;;;-144.14;100.00
7075;BME280;3578;51.568;6.932;2022-10-16T03:24:46;54184.09;;;-144.14;100.00
7075;BME280;3578;51.568;6.932;2022-10-16T03:27:13;54156.03;;;-144.14;100.00
7075;BME280;3578;51.568;6.932;2022-10-16T03:29:40;54182.09;;;-144.14;100.00
7075;BME280;3578;51.568;6.932;2022-10-16T03:32:07;54140.00;;;-144.14;100.00
7075;BME280;3578;51.568;6.932;2022-10-16T03:34:35;54146.03;;;-144.14;100.00
7075;BME280;3578;51.568;6.932;2022-10-16T03:37:02;54152.03;;;-144.14;100.00
7075;BME280;3578;51.568;6.932;2022-10-16T03:39:29;54158.03;;;-144.14;100.00
7075;BME280;3578;51.568;6.932;2022-10-16T03:41:56;54156.03;;;-144.14;100.00
7075;BME280;3578;51.568;6.932;2022-10-16T03:44:23;54107.94;;;-144.14;100.00
7075;BME280;3578;51.568;6.932;2022-10-16T03:46:50;54115.94;;;-144.14;100.00
7075;BME280;3578;51.568;6.932;2022-10-16T03:49:17;54138.00;;;-144.14;100.00
7075;BME280;3578;51.568;6.932;2022-10-16T03:51:45;54182.09;;;-144.14;100.00
7075;BME280;3578;51.568;6.932;2022-10-16T03:54:13;54164.06;;;-144.14;100.00
7075;BME280;3578;51.568;6.932;2022-10-16T03:56:39;54172.09;;;-144.14;100.00
7075;BME280;3578;51.568;6.932;2022-10-16T03:59:06;54140.00;;;-144.14;100.00
7075;BME280;3578;51.568;6.932;2022-10-16T04:01:33;54176.09;;;-144.14;100.00
7075;BME280;3578;51.568;6.932;2022-10-16T04:04:00;54134.00;;;-144.14;100.00
7075;BME280;3578;51.568;6.932;2022-10-16T04:06:27;54162.06;;;-144.14;100.00
7075;BME280;3578;51.568;6.932;2022-10-16T04:08:56;54156.03;;;-144.14;100.00
7075;BME280;3578;51.568;6.932;2022-10-16T04:11:23;54156.03;;;-144.14;100.00
7075;BME280;3578;51.568;6.932;2022-10-16T04:13:50;54176.09;;;-144.14;100.00
7075;BME280;3578;51.568;6.932;2022-10-16T04:16:17;54158.03;;;-144.14;100.00
7075;BME280;3578;51.568;6.932;2022-10-16T04:18:43;54156.03;;;-144.14;100.00
7075;BME280;3578;51.568;6.932;2022-10-16T04:21:10;54138.00;;;-144.14;100.00
7075;BME280;3578;51.568;6.932;2022-10-16T04:23:37;54142.00;;;-144.14;100.00
7075;BME280;3578;51.568;6.932;2022-10-16T04:26:06;54154.03;;;-144.14;100.00
7075;BME280;3578;51.568;6.932;2022-10-16T04:28:33;54129.97;;;-144.14;100.00
7075;BME280;3578;51.568;6.932;2022-10-16T04:31:00;54190.13;;;-144.14;100.00
7075;BME280;3578;51.568;6.932;2022-10-16T04:33:29;54156.03;;;-144.14;100.00
7075;BME280;3578;51.568;6.932;2022-10-16T04:35:57;54208.16;;;-144.14;100.00
7075;BME280;3578;51.568;6.932;2022-10-16T04:38:24;54178.09;;;-144.14;100.00
7075;BME280;3578;51.568;6.932;2022-10-16T04:40:51;54136.00;;;-144.14;100.00
7075;BME280;3578;51.568;6.932;2022-10-16T04:43:20;54182.09;;;-144.14;100.00
7075;BME280;3578;51.568;6.932;2022-10-16T04:45:47;54164.06;;;-144.14;100.00
7075;BME280;3578;51.568;6.932;2022-10-16T04:48:16;54160.06;;;-144.14;100.00
7075;BME280;3578;51.568;6.932;2022-10-16T04:50:43;54170.06;;;-144.14;100.00
7075;BME280;3578;51.568;6.932;2022-10-16T04:53:10;54162.06;;;-144.14;100.00
7075;BME280;3578;51.568;6.932;2022-10-16T04:55:37;54140.00;;;-144.14;100.00
7075;BME280;3578;51.568;6.932;2022-10-16T04:58:04;54142.00;;;-144.14;100.00
7075;BME280;3578;51.568;6.932;2022-10-16T05:00:33;54170.06;;;-144.14;100.00
7075;BME280;3578;51.568;6.932;2022-10-16T05:03:00;54166.06;;;-144.14;100.00
7075;BME280;3578;51.568;6.932;2022-10-16T05:05:27;54172.09;;;-144.14;100.00
7075;BME280;3578;51.568;6.932;2022-10-16T05:07:54;54144.00;;;-144.14;100.00
7075;BME280;3578;51.568;6.932;2022-10-16T05:10:21;54206.16;;;-144.14;100.00
7075;BME280;3578;51.568;6.932;2022-10-16T05:12:48;54148.03;;;-144.14;100.00
7075;BME280;3578;51.568;6.932;2022-10-16T05:15:15;54166.06;;;-144.14;100.00
7075;BME280;3578;51.568;6.932;2022-10-16T05:17:44;54152.03;;;-144.14;100.00
7075;BME280;3578;51.568;6.932;2022-10-16T05:20:11;54166.06;;;-144.14;100.00
7075;BME280;3578;51.568;6.932;2022-10-16T05:22:38;54152.03;;;-144.14;100.00
7075;BME280;3578;51.568;6.932;2022-10-16T05:25:06;54160.06;;;-144.14;100.00
7075;BME280;3578;51.568;6.932;2022-10-16T05:27:33;54190.13;;;-144.14;100.00
7075;BME280;3578;51.568;6.932;2022-10-16T05:30:00;54188.13;;;-144.14;100.00
7075;BME280;3578;51.568;6.932;2022-10-16T05:32:27;54150.03;;;-144.14;100.00
7075;BME280;3578;51.568;6.932;2022-10-16T05:34:55;54182.09;;;-144.14;100.00
7075;BME280;3578;51.568;6.932;2022-10-16T05:37:22;54194.13;;;-144.14;100.00
7075;BME280;3578;51.568;6.932;2022-10-16T05:39:49;54206.16;;;-144.14;100.00
7075;BME280;3578;51.568;6.932;2022-10-16T05:42:16;54158.03;;;-144.14;100.00
7075;BME280;3578;51.568;6.932;2022-10-16T05:44:43;54194.13;;;-144.14;100.00
7075;BME280;3578;51.568;6.932;2022-10-16T05:47:10;54194.13;;;-144.14;100.00
7075;BME280;3578;51.568;6.932;2022-10-16T05:49:39;54212.19;;;-144.14;100.00
7075;BME280;3578;51.568;6.932;2022-10-16T05:52:08;54208.16;;;-144.14;100.00
7075;BME280;3578;51.568;6.932;2022-10-16T05:54:35;54178.09;;;-144.14;100.00
7075;BME280;3578;51.568;6.932;2022-10-16T05:57:02;54158.03;;;-144.14;100.00
7075;BME280;3578;51.568;6.932;2022-10-16T05:59:31;54192.13;;;-144.14;100.00
7075;BME280;3578;51.568;6.932;2022-10-16T06:01:58;54170.06;;;-144.14;100.00
7075;BME280;3578;51.568;6.932;2022-10-16T06:04:25;54182.09;;;-144.14;100.00
7075;BME280;3578;51.568;6.932;2022-10-16T06:06:51;54174.09;;;-144.14;100.00
7075;BME280;3578;51.568;6.932;2022-10-16T06:09:20;54184.09;;;-144.14;100.00
7075;BME280;3578;51.568;6.932;2022-10-16T06:11:47;54184.09;;;-144.14;100.00
7075;BME280;3578;51.568;6.932;2022-10-16T06:14:14;54174.09;;;-144.14;100.00
7075;BME280;3578;51.568;6.932;2022-10-16T06:16:41;54132.00;;;-144.14;100.00
7075;BME280;3578;51.568;6.932;2022-10-16T06:19:08;54156.03;;;-144.14;100.00
7075;BME280;3578;51.568;6.932;2022-10-16T06:21:35;54200.16;;;-144.14;100.00
7075;BME280;3578;51.568;6.932;2022-10-16T06:24:02;54198.13;;;-144.14;100.00
7075;BME280;3578;51.568;6.932;2022-10-16T06:26:31;54162.06;;;-144.14;100.00
7075;BME280;3578;51.568;6.932;2022-10-16T06:28:59;54164.06;;;-144.14;100.00
7075;BME280;3578;51.568;6.932;2022-10-16T06:31:27;54212.19;;;-144.14;100.00
7075;BME280;3578;51.568;6.932;2022-10-16T06:33:57;54192.13;;;-144.14;100.00
7075;BME280;3578;51.568;6.932;2022-10-16T06:36:25;54140.00;;;-144.14;100.00
7075;BME280;3578;51.568;6.932;2022-10-16T06:38:53;54182.09;;;-144.14;100.00
7075;BME280;3578;51.568;6.932;2022-10-16T06:41:22;54160.06;;;-144.14;100.00
7075;BME280;3578;51.568;6.932;2022-10-16T06:43:50;54218.19;;;-144.14;100.00
7075;BME280;3578;51.568;6.932;2022-10-16T06:46:21;54206.16;;;-144.14;100.00
7075;BME280;3578;51.568;6.932;2022-10-16T06:48:48;54184.09;;;-144.14;100.00
7075;BME280;3578;51.568;6.932;2022-10-16T06:51:17;54182.09;;;-144.14;100.00
7075;BME280;3578;51.568;6.932;2022-10-16T06:53:46;54176.09;;;-144.14;100.00
7075;BME280;3578;51.568;6.932;2022-10-16T06:56:17;54198.13;;;-144.14;100.00
7075;BME280;3578;51.568;6.932;2022-10-16T06:58:45;54196.13;;;-144.14;100.00
7075;BME280;3578;51.568;6.932;2022-10-16T07:01:15;54168.06;;;-144.14;100.00
7075;BME280;3578;51.568;6.932;2022-10-16T07:03:44;54182.09;;;-144.14;100.00
7075;BME280;3578;51.568;6.932;2022-10-16T07:06:14;54160.06;;;-144.14;100.00
7075;BME280;3578;51.568;6.932;2022-10-16T07:08:44;54132.00;;;-144.14;100.00
7075;BME280;3578;51.568;6.932;2022-10-16T07:11:15;54176.09;;;-144.14;100.00
7075;BME280;3578;51.568;6.932;2022-10-16T07:13:43;54144.00;;;-144.14;100.00
7075;BME280;3578;51.568;6.932;2022-10-16T07:16:16;54142.00;;;-144.14;100.00
7075;BME280;3578;51.568;6.932;2022-10-16T07:18:44;54180.09;;;-144.14;100.00
7075;BME280;3578;51.568;6.932;2022-10-16T07:21:14;54127.97;;;-144.14;100.00
7075;BME280;3578;51.568;6.932;2022-10-16T07:23:43;54158.03;;;-144.14;100.00
7075;BME280;3578;51.568;6.932;2022-10-16T07:26:10;54164.06;;;-144.14;100.00
7075;BME280;3578;51.568;6.932;2022-10-16T07:28:38;54172.09;;;-144.14;100.00
7075;BME280;3578;51.568;6.932;2022-10-16T07:31:08;54196.13;;;-144.14;100.00
7075;BME280;3578;51.568;6.932;2022-10-16T07:33:39;54192.13;;;-144.14;100.00
7075;BME280;3578;51.568;6.932;2022-10-16T07:36:07;54216.19;;;-144.14;100.00
7075;BME280;3578;51.568;6.932;2022-10-16T07:38:34;54284.34;;;-144.14;100.00
7075;BME280;3578;51.568;6.932;2022-10-16T07:41:04;54278.31;;;-144.14;100.00
7075;BME280;3578;51.568;6.932;2022-10-16T07:43:32;54280.34;;;-144.14;100.00
7075;BME280;3578;51.568;6.932;2022-10-16T07:45:59;54304.38;;;-144.14;100.00
7075;BME280;3578;51.568;6.932;2022-10-16T07:48:28;54310.41;;;-144.14;100.00
7075;BME280;3578;51.568;6.932;2022-10-16T07:50:58;54332.47;;;-144.14;100.00
7075;BME280;3578;51.568;6.932;2022-10-16T07:53:26;54358.50;;;-144.14;100.00
7075;BME280;3578;51.568;6.932;2022-10-16T07:55:58;54388.59;;;-144.14;100.00
7075;BME280;3578;51.568;6.932;2022-10-16T07:58:25;54352.50;;;-144.14;100.00
7075;BME280;3578;51.568;6.932;2022-10-16T08:00:52;54396.59;;;-144.14;100.00
7075;BME280;3578;51.568;6.932;2022-10-16T08:03:19;54380.56;;;-144.14;100.00
7075;BME280;3578;51.568;6.932;2022-10-16T08:05:47;54460.75;;;-144.14;100.00
7075;BME280;3578;51.568;6.932;2022-10-16T08:08:17;54464.78;;;-144.14;99.67
7075;BME280;3578;51.568;6.932;2022-10-16T08:10:44;54510.88;;;-144.14;99.55
7075;BME280;3578;51.568;6.932;2022-10-16T08:13:11;54617.13;;;-144.14;98.03
7075;BME280;3578;51.568;6.932;2022-10-16T08:15:40;54717.38;;;-144.14;96.82
7075;BME280;3578;51.568;6.932;2022-10-16T08:18:07;54745.47;;;-144.14;95.69
7075;BME280;3578;51.568;6.932;2022-10-16T08:20:34;54717.38;;;-144.14;95.50
7075;BME280;3578;51.568;6.932;2022-10-16T08:23:01;54693.31;;;-144.14;95.93
7075;BME280;3578;51.568;6.932;2022-10-16T08:25:30;54711.38;;;-144.14;95.83
7075;BME280;3578;51.568;6.932;2022-10-16T08:27:57;54731.41;;;-144.14;96.24
7075;BME280;3578;51.568;6.932;2022-10-16T08:30:24;54737.44;;;-144.14;96.33
7075;BME280;3578;51.568;6.932;2022-10-16T08:32:51;54765.50;;;-144.14;95.02
7075;BME280;3578;51.568;6.932;2022-10-16T08:35:18;54801.59;;;-144.14;93.84
7075;BME280;3578;51.568;6.932;2022-10-16T08:37:45;54805.59;;;-144.14;93.80
7075;BME280;3578;51.568;6.932;2022-10-16T08:40:18;54845.72;;;-144.14;93.57
7075;BME280;3578;51.568;6.932;2022-10-16T08:42:59;54885.81;;;-144.14;93.17
7075;BME280;3578;51.568;6.932;2022-10-16T08:45:43;54927.91;;;-144.14;92.76
7075;BME280;3578;51.568;6.932;2022-10-16T08:48:20;54931.91;;;-144.14;92.82
7075;BME280;3578;51.568;6.932;2022-10-16T08:50:51;54968.00;;;-144.14;92.12
7075;BME280;3578;51.568;6.932;2022-10-16T08:53:23;54982.06;;;-144.14;91.87
7075;BME280;3578;51.568;6.932;2022-10-16T08:55:52;54996.09;;;-144.14;91.60
7075;BME280;3578;51.568;6.932;2022-10-16T08:58:23;55006.13;;;-144.14;91.48
7075;BME280;3578;51.568;6.932;2022-10-16T09:00:56;55042.22;;;-144.14;90.83
7075;BME280;3578;51.568;6.932;2022-10-16T09:03:42;55086.31;;;-144.14;90.75
7075;BME280;3578;51.568;6.932;2022-10-16T09:06:29;55090.31;;;-144.14;90.44
7075;BME280;3578;51.568;6.932;2022-10-16T09:09:15;55164.53;;;-144.14;89.72
7075;BME280;3578;51.568;6.932;2022-10-16T09:11:53;55156.50;;;-144.14;90.11
7075;BME280;3578;51.568;6.932;2022-10-16T09:15:02;55146.47;;;-144.14;88.92
7075;BME280;3578;51.568;6.932;2022-10-16T09:17:42;55130.44;;;-144.14;88.20
7075;BME280;3578;51.568;6.932;2022-10-16T09:20:28;55104.38;;;-144.14;89.12
7075;BME280;3578;51.568;6.932;2022-10-16T09:23:13;55108.38;;;-144.14;89.80
7075;BME280;3578;51.568;6.932;2022-10-16T09:25:45;55140.47;;;-144.14;88.97
7075;BME280;3578;51.568;6.932;2022-10-16T09:28:13;55190.59;;;-144.14;87.80
7075;BME280;3578;51.568;6.932;2022-10-16T09:30:42;55228.69;;;-144.14;88.11
7075;BME280;3578;51.568;6.932;2022-10-16T09:33:11;55252.75;;;-144.14;87.50
7075;BME280;3578;51.568;6.932;2022-10-16T09:35:40;55258.78;;;-144.14;86.72
7075;BME280;3578;51.568;6.932;2022-10-16T09:38:09;55294.88;;;-144.14;87.88
7075;BME280;3578;51.568;6.932;2022-10-16T09:40:47;55304.88;;;-144.14;88.07
7075;BME280;3578;51.568;6.932;2022-10-16T09:43:22;55349.00;;;-144.14;87.09
7075;BME280;3578;51.568;6.932;2022-10-16T09:45:57;55330.97;;;-144.14;85.00
7075;BME280;3578;51.568;6.932;2022-10-16T09:48:28;55395.13;;;-144.14;85.57
7075;BME280;3578;51.568;6.932;2022-10-16T09:50:59;55387.09;;;-144.14;85.58
7075;BME280;3578;51.568;6.932;2022-10-16T09:53:39;55415.19;;;-144.14;85.27
7075;BME280;3578;51.568;6.932;2022-10-16T09:56:07;55423.22;;;-144.14;84.32
7075;BME280;3578;51.568;6.932;2022-10-16T09:58:36;55473.34;;;-144.14;83.80
7075;BME280;3578;51.568;6.932;2022-10-16T10:01:12;55535.50;;;-144.14;83.63
7075;BME280;3578;51.568;6.932;2022-10-16T10:03:42;55509.44;;;-144.14;82.85
7075;BME280;3578;51.568;6.932;2022-10-16T10:06:21;55543.53;;;-144.14;83.11
7075;BME280;3578;51.568;6.932;2022-10-16T10:09:02;55565.59;;;-144.14;81.71
7075;BME280;3578;51.568;6.932;2022-10-16T10:11:44;55535.50;;;-144.14;81.98
7075;BME280;3578;51.568;6.932;2022-10-16T10:14:30;55605.69;;;-144.14;81.64
7075;BME280;3578;51.568;6.932;2022-10-16T10:17:14;55625.75;;;-144.14;80.74
7075;BME280;3578;51.568;6.932;2022-10-16T10:19:49;55567.59;;;-144.14;81.18
7075;BME280;3578;51.568;6.932;2022-10-16T10:22:30;55473.34;;;-144.14;81.70
7075;BME280;3578;51.568;6.932;2022-10-16T10:25:18;55463.31;;;-144.14;82.04
7075;BME280;3578;51.568;6.932;2022-10-16T10:28:17;55443.25;;;-144.14;81.13
7075;BME280;3578;51.568;6.932;2022-10-16T10:30:52;55383.09;;;-144.14;82.11
7075;BME280;3578;51.568;6.932;2022-10-16T10:33:36;55363.03;;;-144.14;83.25
7075;BME280;3578;51.568;6.932;2022-10-16T10:36:18;55268.78;;;-144.14;84.63
7075;BME280;3578;51.568;6.932;2022-10-16T10:38:52;55308.91;;;-144.14;85.33
7075;BME280;3578;51.568;6.932;2022-10-16T10:41:50;55306.91;;;-144.14;83.67
7075;BME280;3578;51.568;6.932;2022-10-16T10:44:37;55284.84;;;-144.14;84.21
7075;BME280;3578;51.568;6.932;2022-10-16T10:47:20;55276.81;;;-144.14;84.28
7075;BME280;3578;51.568;6.932;2022-10-16T10:50:02;55292.84;;;-144.14;85.04
7075;BME280;3578;51.568;6.932;2022-10-16T10:52:43;55296.88;;;-144.14;84.50
7075;BME280;3578;51.568;6.932;2022-10-16T10:55:23;55296.88;;;-144.14;83.41
7075;BME280;3578;51.568;6.932;2022-10-16T10:58:10;55328.94;;;-144.14;83.82
7075;BME280;3578;51.568;6.932;2022-10-16T11:00:51;55332.97;;;-144.14;83.70
7075;BME280;3578;51.568;6.932;2022-10-16T11:03:35;55340.97;;;-144.14;82.19
7075;BME280;3578;51.568;6.932;2022-10-16T11:06:14;55274.81;;;-144.14;83.59
7075;BME280;3578;51.568;6.932;2022-10-16T11:08:48;55278.81;;;-144.14;83.84
7075;BME280;3578;51.568;6.932;2022-10-16T11:11:24;55240.72;;;-144.14;83.85
7075;BME280;3578;51.568;6.932;2022-10-16T11:13:57;55238.72;;;-144.14;83.95
7075;BME280;3578;51.568;6.932;2022-10-16T11:16:30;55228.69;;;-144.14;83.45
7075;BME280;3578;51.568;6.932;2022-10-16T11:19:05;55192.59;;;-144.14;85.41
7075;BME280;3578;51.568;6.932;2022-10-16T11:21:44;55202.63;;;-144.14;85.64
7075;BME280;3578;51.568;6.932;2022-10-16T11:24:22;55190.59;;;-144.14;85.66
7075;BME280;3578;51.568;6.932;2022-10-16T11:26:50;55234.72;;;-144.14;85.98
7075;BME280;3578;51.568;6.932;2022-10-16T11:29:26;55186.59;;;-144.14;86.01
7075;BME280;3578;51.568;6.932;2022-10-16T11:32:00;55188.59;;;-144.14;86.06
7075;BME280;3578;51.568;6.932;2022-10-16T11:34:33;55178.56;;;-144.14;87.23
7075;BME280;3578;51.568;6.932;2022-10-16T11:37:09;55206.63;;;-144.14;87.12
7075;BME280;3578;51.568;6.932;2022-10-16T11:39:38;55234.72;;;-144.14;84.82
7075;BME280;3578;51.568;6.932;2022-10-16T11:42:11;55248.75;;;-144.14;84.49
7075;BME280;3578;51.568;6.932;2022-10-16T11:44:48;55282.84;;;-144.14;83.70
7075;BME280;3578;51.568;6.932;2022-10-16T11:47:31;55270.81;;;-144.14;83.30
7075;BME280;3578;51.568;6.932;2022-10-16T11:50:04;55276.81;;;-144.14;83.24
7075;BME280;3578;51.568;6.932;2022-10-16T11:52:44;55276.81;;;-144.14;84.22
7075;BME280;3578;51.568;6.932;2022-10-16T11:55:16;55302.88;;;-144.14;85.05
7075;BME280;3578;51.568;6.932;2022-10-16T11:57:48;55302.88;;;-144.14;84.52
7075;BME280;3578;51.568;6.932;2022-10-16T12:00:22;55284.84;;;-144.14;83.80
7075;BME280;3578;51.568;6.932;2022-10-16T12:03:00;55312.91;;;-144.14;83.16
7075;BME280;3578;51.568;6.932;2022-10-16T12:05:42;55298.88;;;-144.14;83.70
7075;BME280;3578;51.568;6.932;2022-10-16T12:08:18;55284.84;;;-144.14;84.03
7075;BME280;3578;51.568;6.932;2022-10-16T12:10:46;55258.78;;;-144.14;83.84
7075;BME280;3578;51.568;6.932;2022-10-16T12:13:32;55351.00;;;-144.14;83.72
7075;BME280;3578;51.568;6.932;2022-10-16T12:16:21;55302.88;;;-144.14;84.40
7075;BME280;3578;51.568;6.932;2022-10-16T12:18:49;55324.94;;;-144.14;83.53
7075;BME280;3578;51.568;6.932;2022-10-16T12:21:31;55324.94;;;-144.14;83.95
7075;BME280;3578;51.568;6.932;2022-10-16T12:24:01;55338.97;;;-144.14;85.22
7075;BME280;3578;51.568;6.932;2022-10-16T12:26:31;55338.97;;;-144.14;85.05
7075;BME280;3578;51.568;6.932;2022-10-16T12:29:14;55357.03;;;-144.14;84.34
7075;BME280;3578;51.568;6.932;2022-10-16T12:31:48;55314.91;;;-144.14;84.40
7075;BME280;3578;51.568;6.932;2022-10-16T12:34:23;55351.00;;;-144.14;84.53
7075;BME280;3578;51.568;6.932;2022-10-16T12:36:54;55288.84;;;-144.14;85.00
7075;BME280;3578;51.568;6.932;2022-10-16T12:39:24;55298.88;;;-144.14;84.78
7075;BME280;3578;51.568;6.932;2022-10-16T12:42:02;55280.81;;;-144.14;85.67
7075;BME280;3578;51.568;6.932;2022-10-16T12:44:33;55294.88;;;-144.14;85.30
7075;BME280;3578;51.568;6.932;2022-10-16T12:47:01;55282.84;;;-144.14;85.42
7075;BME280;3578;51.568;6.932;2022-10-16T12:49:36;55312.91;;;-144.14;84.51
7075;BME280;3578;51.568;6.932;2022-10-16T12:52:04;55326.94;;;-144.14;82.89
7075;BME280;3578;51.568;6.932;2022-10-16T12:54:36;55332.97;;;-144.14;82.60
7075;BME280;3578;51.568;6.932;2022-10-16T12:57:25;55324.94;;;-144.14;82.32
7075;BME280;3578;51.568;6.932;2022-10-16T13:00:04;55310.91;;;-144.14;82.83
7075;BME280;3578;51.568;6.932;2022-10-16T13:05:52;55345.00;;;-144.14;83.30
7075;BME280;3578;51.568;6.932;2022-10-16T13:08:42;55359.03;;;-144.14;83.14
7075;BME280;3578;51.568;6.932;2022-10-16T13:11:23;55391.13;;;-144.14;82.64
7075;BME280;3578;51.568;6.932;2022-10-16T13:14:25;55383.09;;;-144.14;83.42
7075;BME280;3578;51.568;6.932;2022-10-16T13:17:03;55415.19;;;-144.14;82.50
7075;BME280;3578;51.568;6.932;2022-10-16T13:19:40;55391.13;;;-144.14;82.09